sensor_id;sensor_type;location;lat;lon;timestamp;P1;durP1;ratioP1;P2;durP2;ratioP2
6095;SDS011;25081;42.698;23.298;2023-05-07T00:01:51;20.57;;;13.10;;
6095;SDS011;25081;42.698;23.298;2023-05-07T00:04:01;21.57;;;12.93;;
6095;SDS011;25081;42.698;23.298;2023-05-07T00:06:12;23.63;;;12.60;;
6095;SDS011;25081;42.698;23.298;2023-05-07T00:08:23;24.00;;;14.77;;
6095;SDS011;25081;42.698;23.298;2023-05-07T00:10:33;28.20;;;15.00;;
6095;SDS011;25081;42.698;23.298;2023-05-07T00:12:44;22.67;;;12.53;;
6095;SDS011;25081;42.698;23.298;2023-05-07T00:14:57;13.40;;;9.20;;
6095;SDS011;25081;42.698;23.298;2023-05-07T00:17:08;15.20;;;10.20;;
6095;SDS011;25081;42.698;23.298;2023-05-07T00:19:18;14.13;;;10.17;;
6095;SDS011;25081;42.698;23.298;2023-05-07T00:21:29;13.40;;;9.40;;
6095;SDS011;25081;42.698;23.298;2023-05-07T00:23:39;12.90;;;9.53;;
6095;SDS011;25081;42.698;23.298;2023-05-07T00:25:50;15.27;;;10.40;;
6095;SDS011;25081;42.698;23.298;2023-05-07T00:28:01;17.47;;;11.10;;
6095;SDS011;25081;42.698;23.298;2023-05-07T00:30:12;13.97;;;10.00;;
6095;SDS011;25081;42.698;23.298;2023-05-07T00:32:23;18.53;;;10.73;;
6095;SDS011;25081;42.698;23.298;2023-05-07T00:34:33;18.97;;;11.57;;
6095;SDS011;25081;42.698;23.298;2023-05-07T00:36:44;13.70;;;10.13;;
6095;SDS011;25081;42.698;23.298;2023-05-07T00:38:56;23.97;;;13.63;;
6095;SDS011;25081;42.698;23.298;2023-05-07T00:41:05;21.43;;;13.20;;
6095;SDS011;25081;42.698;23.298;2023-05-07T00:43:16;21.13;;;13.43;;
6095;SDS011;25081;42.698;23.298;2023-05-07T00:45:27;27.70;;;16.57;;
6095;SDS011;25081;42.698;23.298;2023-05-07T00:47:37;34.27;;;17.80;;
6095;SDS011;25081;42.698;23.298;2023-05-07T00:49:48;30.20;;;17.10;;
6095;SDS011;25081;42.698;23.298;2023-05-07T00:51:59;27.00;;;16.80;;
6095;SDS011;25081;42.698;23.298;2023-05-07T00:54:09;29.30;;;16.00;;
6095;SDS011;25081;42.698;23.298;2023-05-07T00:56:20;17.93;;;11.67;;
6095;SDS011;25081;42.698;23.298;2023-05-07T00:58:31;18.27;;;12.07;;
6095;SDS011;25081;42.698;23.298;2023-05-07T01:00:42;26.67;;;15.17;;
6095;SDS011;25081;42.698;23.298;2023-05-07T01:02:52;25.00;;;14.80;;
6095;SDS011;25081;42.698;23.298;2023-05-07T01:05:03;27.93;;;15.47;;
6095;SDS011;25081;42.698;23.298;2023-05-07T01:07:15;26.70;;;14.50;;
6095;SDS011;25081;42.698;23.298;2023-05-07T01:09:25;22.83;;;14.80;;
6095;SDS011;25081;42.698;23.298;2023-05-07T01:11:36;23.77;;;13.13;;
6095;SDS011;25081;42.698;23.298;2023-05-07T01:13:47;18.43;;;11.50;;
6095;SDS011;25081;42.698;23.298;2023-05-07T01:15:57;17.93;;;12.03;;
6095;SDS011;25081;42.698;23.298;2023-05-07T01:18:08;18.57;;;12.43;;
6095;SDS011;25081;42.698;23.298;2023-05-07T01:20:18;23.60;;;12.77;;
6095;SDS011;25081;42.698;23.298;2023-05-07T01:22:30;17.47;;;13.10;;
6095;SDS011;25081;42.698;23.298;2023-05-07T01:24:41;16.17;;;12.30;;
6095;SDS011;25081;42.698;23.298;2023-05-07T01:26:51;21.20;;;13.23;;
6095;SDS011;25081;42.698;23.298;2023-05-07T01:29:02;16.27;;;11.30;;
6095;SDS011;25081;42.698;23.298;2023-05-07T01:31:12;15.43;;;12.47;;
6095;SDS011;25081;42.698;23.298;2023-05-07T01:33:23;29.70;;;17.30;;
6095;SDS011;25081;42.698;23.298;2023-05-07T01:35:34;21.53;;;12.97;;
6095;SDS011;25081;42.698;23.298;2023-05-07T01:37:44;27.17;;;15.73;;
6095;SDS011;25081;42.698;23.298;2023-05-07T01:39:55;19.13;;;13.07;;
6095;SDS011;25081;42.698;23.298;2023-05-07T01:42:05;21.97;;;15.10;;
6095;SDS011;25081;42.698;23.298;2023-05-07T01:44:16;18.83;;;13.73;;
6095;SDS011;25081;42.698;23.298;2023-05-07T01:46:27;24.93;;;15.27;;
6095;SDS011;25081;42.698;23.298;2023-05-07T01:48:38;20.90;;;13.47;;
6095;SDS011;25081;42.698;23.298;2023-05-07T01:50:48;17.33;;;12.47;;
6095;SDS011;25081;42.698;23.298;2023-05-07T01:52:59;18.00;;;12.60;;
6095;SDS011;25081;42.698;23.298;2023-05-07T01:55:10;19.40;;;12.77;;
6095;SDS011;25081;42.698;23.298;2023-05-07T01:57:20;18.70;;;13.17;;
6095;SDS011;25081;42.698;23.298;2023-05-07T01:59:31;15.93;;;11.50;;
6095;SDS011;25081;42.698;23.298;2023-05-07T02:01:42;12.93;;;10.17;;
6095;SDS011;25081;42.698;23.298;2023-05-07T02:03:52;15.90;;;10.17;;
6095;SDS011;25081;42.698;23.298;2023-05-07T02:06:03;12.30;;;8.43;;
6095;SDS011;25081;42.698;23.298;2023-05-07T02:08:14;17.57;;;10.90;;
6095;SDS011;25081;42.698;23.298;2023-05-07T02:10:25;21.33;;;11.83;;
6095;SDS011;25081;42.698;23.298;2023-05-07T02:12:35;16.90;;;10.90;;
6095;SDS011;25081;42.698;23.298;2023-05-07T02:14:46;14.70;;;10.80;;
6095;SDS011;25081;42.698;23.298;2023-05-07T02:16:56;15.35;;;9.83;;
6095;SDS011;25081;42.698;23.298;2023-05-07T02:19:07;18.02;;;11.03;;
6095;SDS011;25081;42.698;23.298;2023-05-07T02:21:17;14.83;;;10.30;;
6095;SDS011;25081;42.698;23.298;2023-05-07T02:23:28;14.45;;;9.23;;
6095;SDS011;25081;42.698;23.298;2023-05-07T02:25:38;16.07;;;11.57;;
6095;SDS011;25081;42.698;23.298;2023-05-07T02:27:49;16.02;;;11.08;;
6095;SDS011;25081;42.698;23.298;2023-05-07T02:30:00;20.90;;;12.47;;
6095;SDS011;25081;42.698;23.298;2023-05-07T02:32:10;22.37;;;15.50;;
6095;SDS011;25081;42.698;23.298;2023-05-07T02:34:21;20.25;;;14.60;;
6095;SDS011;25081;42.698;23.298;2023-05-07T02:36:32;20.00;;;13.33;;
6095;SDS011;25081;42.698;23.298;2023-05-07T02:38:43;21.87;;;12.90;;
6095;SDS011;25081;42.698;23.298;2023-05-07T02:40:53;20.62;;;11.68;;
6095;SDS011;25081;42.698;23.298;2023-05-07T02:43:04;16.87;;;12.53;;
6095;SDS011;25081;42.698;23.298;2023-05-07T02:45:15;16.20;;;11.90;;
6095;SDS011;25081;42.698;23.298;2023-05-07T02:47:25;17.13;;;11.70;;
6095;SDS011;25081;42.698;23.298;2023-05-07T02:49:36;16.20;;;11.25;;
6095;SDS011;25081;42.698;23.298;2023-05-07T02:51:47;17.57;;;12.58;;
6095;SDS011;25081;42.698;23.298;2023-05-07T02:53:57;17.85;;;11.85;;
6095;SDS011;25081;42.698;23.298;2023-05-07T02:56:08;16.20;;;10.20;;
6095;SDS011;25081;42.698;23.298;2023-05-07T02:58:19;16.90;;;11.00;;
6095;SDS011;25081;42.698;23.298;2023-05-07T03:00:29;16.93;;;9.83;;
6095;SDS011;25081;42.698;23.298;2023-05-07T03:02:40;14.65;;;10.95;;
6095;SDS011;25081;42.698;23.298;2023-05-07T03:04:50;13.25;;;9.60;;
6095;SDS011;25081;42.698;23.298;2023-05-07T03:07:01;13.75;;;10.30;;
6095;SDS011;25081;42.698;23.298;2023-05-07T03:09:12;17.30;;;10.67;;
6095;SDS011;25081;42.698;23.298;2023-05-07T03:11:22;12.53;;;9.25;;
6095;SDS011;25081;42.698;23.298;2023-05-07T03:13:33;18.03;;;11.60;;
6095;SDS011;25081;42.698;23.298;2023-05-07T03:15:44;11.85;;;9.75;;
6095;SDS011;25081;42.698;23.298;2023-05-07T03:17:54;14.30;;;10.10;;
6095;SDS011;25081;42.698;23.298;2023-05-07T03:20:07;17.30;;;9.35;;
6095;SDS011;25081;42.698;23.298;2023-05-07T03:22:18;15.10;;;10.03;;
6095;SDS011;25081;42.698;23.298;2023-05-07T03:24:29;17.55;;;10.38;;
6095;SDS011;25081;42.698;23.298;2023-05-07T03:26:40;14.10;;;9.63;;
6095;SDS011;25081;42.698;23.298;2023-05-07T03:28:50;18.40;;;10.10;;
6095;SDS011;25081;42.698;23.298;2023-05-07T03:31:01;10.90;;;8.97;;
6095;SDS011;25081;42.698;23.298;2023-05-07T03:33:11;11.63;;;9.07;;
6095;SDS011;25081;42.698;23.298;2023-05-07T03:35:22;13.62;;;10.10;;
6095;SDS011;25081;42.698;23.298;2023-05-07T03:37:33;14.80;;;11.03;;
6095;SDS011;25081;42.698;23.298;2023-05-07T03:39:43;14.63;;;10.13;;
6095;SDS011;25081;42.698;23.298;2023-05-07T03:41:54;17.20;;;9.80;;
6095;SDS011;25081;42.698;23.298;2023-05-07T03:44:04;17.47;;;10.40;;
6095;SDS011;25081;42.698;23.298;2023-05-07T03:46:15;12.03;;;9.47;;
6095;SDS011;25081;42.698;23.298;2023-05-07T03:48:25;15.17;;;10.50;;
6095;SDS011;25081;42.698;23.298;2023-05-07T03:50:36;18.67;;;11.57;;
6095;SDS011;25081;42.698;23.298;2023-05-07T03:52:46;15.50;;;10.10;;
6095;SDS011;25081;42.698;23.298;2023-05-07T03:54:57;15.20;;;9.33;;
6095;SDS011;25081;42.698;23.298;2023-05-07T03:57:07;13.97;;;9.37;;
6095;SDS011;25081;42.698;23.298;2023-05-07T03:59:18;11.50;;;8.60;;
6095;SDS011;25081;42.698;23.298;2023-05-07T04:01:29;12.10;;;7.63;;
6095;SDS011;25081;42.698;23.298;2023-05-07T04:03:39;13.03;;;8.90;;
6095;SDS011;25081;42.698;23.298;2023-05-07T04:05:50;11.07;;;8.77;;
6095;SDS011;25081;42.698;23.298;2023-05-07T04:08:01;10.13;;;8.57;;
6095;SDS011;25081;42.698;23.298;2023-05-07T04:10:11;11.43;;;9.00;;
6095;SDS011;25081;42.698;23.298;2023-05-07T04:12:22;10.97;;;7.90;;
6095;SDS011;25081;42.698;23.298;2023-05-07T04:14:33;12.97;;;8.73;;
6095;SDS011;25081;42.698;23.298;2023-05-07T04:16:43;11.93;;;8.60;;
6095;SDS011;25081;42.698;23.298;2023-05-07T04:18:54;15.50;;;7.60;;
6095;SDS011;25081;42.698;23.298;2023-05-07T04:21:04;11.30;;;9.10;;
6095;SDS011;25081;42.698;23.298;2023-05-07T04:23:15;11.63;;;8.23;;
6095;SDS011;25081;42.698;23.298;2023-05-07T04:25:25;10.73;;;7.60;;
6095;SDS011;25081;42.698;23.298;2023-05-07T04:27:36;11.53;;;8.50;;
6095;SDS011;25081;42.698;23.298;2023-05-07T04:29:46;12.07;;;8.50;;
6095;SDS011;25081;42.698;23.298;2023-05-07T04:31:57;8.93;;;7.90;;
6095;SDS011;25081;42.698;23.298;2023-05-07T04:34:07;12.13;;;9.00;;
6095;SDS011;25081;42.698;23.298;2023-05-07T04:36:18;12.43;;;9.17;;
6095;SDS011;25081;42.698;23.298;2023-05-07T04:38:29;15.20;;;8.50;;
6095;SDS011;25081;42.698;23.298;2023-05-07T04:40:40;11.43;;;8.63;;
6095;SDS011;25081;42.698;23.298;2023-05-07T04:42:51;10.13;;;8.20;;
6095;SDS011;25081;42.698;23.298;2023-05-07T04:45:01;10.27;;;7.70;;
6095;SDS011;25081;42.698;23.298;2023-05-07T04:47:12;10.97;;;7.97;;
6095;SDS011;25081;42.698;23.298;2023-05-07T04:49:23;14.30;;;8.40;;
6095;SDS011;25081;42.698;23.298;2023-05-07T04:51:34;10.47;;;7.90;;
6095;SDS011;25081;42.698;23.298;2023-05-07T04:53:44;9.83;;;7.47;;
6095;SDS011;25081;42.698;23.298;2023-05-07T04:55:58;9.90;;;7.57;;
6095;SDS011;25081;42.698;23.298;2023-05-07T04:58:08;11.57;;;6.97;;
6095;SDS011;25081;42.698;23.298;2023-05-07T05:00:19;10.03;;;7.50;;
6095;SDS011;25081;42.698;23.298;2023-05-07T05:02:31;9.73;;;7.63;;
6095;SDS011;25081;42.698;23.298;2023-05-07T05:04:42;8.70;;;6.70;;
6095;SDS011;25081;42.698;23.298;2023-05-07T05:06:52;9.77;;;7.60;;
6095;SDS011;25081;42.698;23.298;2023-05-07T05:09:03;14.73;;;8.90;;
6095;SDS011;25081;42.698;23.298;2023-05-07T05:11:14;10.10;;;8.13;;
6095;SDS011;25081;42.698;23.298;2023-05-07T05:13:25;10.67;;;8.03;;
6095;SDS011;25081;42.698;23.298;2023-05-07T05:15:35;9.43;;;7.03;;
6095;SDS011;25081;42.698;23.298;2023-05-07T05:17:46;9.73;;;8.23;;
6095;SDS011;25081;42.698;23.298;2023-05-07T05:19:57;10.73;;;8.33;;
6095;SDS011;25081;42.698;23.298;2023-05-07T05:22:08;10.20;;;7.80;;
6095;SDS011;25081;42.698;23.298;2023-05-07T05:24:18;10.73;;;8.27;;
6095;SDS011;25081;42.698;23.298;2023-05-07T05:26:29;10.20;;;8.53;;
6095;SDS011;25081;42.698;23.298;2023-05-07T05:28:40;11.43;;;8.60;;
6095;SDS011;25081;42.698;23.298;2023-05-07T05:30:50;12.17;;;8.87;;
6095;SDS011;25081;42.698;23.298;2023-05-07T05:33:01;17.50;;;8.47;;
6095;SDS011;25081;42.698;23.298;2023-05-07T05:35:11;11.00;;;8.33;;
6095;SDS011;25081;42.698;23.298;2023-05-07T05:37:22;10.50;;;8.00;;
6095;SDS011;25081;42.698;23.298;2023-05-07T05:39:33;11.20;;;8.80;;
6095;SDS011;25081;42.698;23.298;2023-05-07T05:41:43;11.03;;;8.37;;
6095;SDS011;25081;42.698;23.298;2023-05-07T05:43:54;10.73;;;8.33;;
6095;SDS011;25081;42.698;23.298;2023-05-07T05:46:04;12.30;;;8.00;;
6095;SDS011;25081;42.698;23.298;2023-05-07T05:48:15;10.97;;;8.50;;
6095;SDS011;25081;42.698;23.298;2023-05-07T05:50:26;12.87;;;8.80;;
6095;SDS011;25081;42.698;23.298;2023-05-07T05:52:36;11.03;;;9.70;;
6095;SDS011;25081;42.698;23.298;2023-05-07T05:54:47;12.90;;;9.70;;
6095;SDS011;25081;42.698;23.298;2023-05-07T05:56:58;11.23;;;8.97;;
6095;SDS011;25081;42.698;23.298;2023-05-07T05:59:08;10.30;;;8.30;;
6095;SDS011;25081;42.698;23.298;2023-05-07T06:01:19;11.77;;;9.10;;
6095;SDS011;25081;42.698;23.298;2023-05-07T06:03:30;10.87;;;8.73;;
6095;SDS011;25081;42.698;23.298;2023-05-07T06:05:41;11.50;;;9.00;;
6095;SDS011;25081;42.698;23.298;2023-05-07T06:07:51;12.03;;;8.80;;
6095;SDS011;25081;42.698;23.298;2023-05-07T06:10:03;11.67;;;8.97;;
6095;SDS011;25081;42.698;23.298;2023-05-07T06:12:14;11.77;;;8.77;;
6095;SDS011;25081;42.698;23.298;2023-05-07T06:14:25;11.30;;;9.00;;
6095;SDS011;25081;42.698;23.298;2023-05-07T06:16:36;13.17;;;9.63;;
6095;SDS011;25081;42.698;23.298;2023-05-07T06:18:47;11.73;;;8.83;;
6095;SDS011;25081;42.698;23.298;2023-05-07T06:20:58;10.90;;;9.50;;
6095;SDS011;25081;42.698;23.298;2023-05-07T06:23:08;10.33;;;8.83;;
6095;SDS011;25081;42.698;23.298;2023-05-07T06:25:19;9.97;;;8.90;;
6095;SDS011;25081;42.698;23.298;2023-05-07T06:27:30;13.93;;;10.63;;
6095;SDS011;25081;42.698;23.298;2023-05-07T06:29:40;12.40;;;8.73;;
6095;SDS011;25081;42.698;23.298;2023-05-07T06:31:51;10.80;;;9.30;;
6095;SDS011;25081;42.698;23.298;2023-05-07T06:34:03;10.37;;;9.10;;
6095;SDS011;25081;42.698;23.298;2023-05-07T06:36:13;10.97;;;8.73;;
6095;SDS011;25081;42.698;23.298;2023-05-07T06:38:24;9.17;;;7.80;;
6095;SDS011;25081;42.698;23.298;2023-05-07T06:40:35;11.30;;;8.53;;
6095;SDS011;25081;42.698;23.298;2023-05-07T06:42:46;11.87;;;9.20;;
6095;SDS011;25081;42.698;23.298;2023-05-07T06:44:56;11.03;;;9.43;;
6095;SDS011;25081;42.698;23.298;2023-05-07T06:47:07;11.47;;;8.60;;
6095;SDS011;25081;42.698;23.298;2023-05-07T06:49:17;10.73;;;9.63;;
6095;SDS011;25081;42.698;23.298;2023-05-07T06:51:28;13.67;;;10.17;;
6095;SDS011;25081;42.698;23.298;2023-05-07T06:53:38;12.03;;;9.50;;
6095;SDS011;25081;42.698;23.298;2023-05-07T06:55:49;13.53;;;8.77;;
6095;SDS011;25081;42.698;23.298;2023-05-07T06:57:59;11.23;;;9.07;;
6095;SDS011;25081;42.698;23.298;2023-05-07T07:00:11;10.30;;;9.23;;
6095;SDS011;25081;42.698;23.298;2023-05-07T07:02:23;9.47;;;8.50;;
6095;SDS011;25081;42.698;23.298;2023-05-07T07:04:34;9.30;;;7.77;;
6095;SDS011;25081;42.698;23.298;2023-05-07T07:06:45;10.30;;;8.60;;
6095;SDS011;25081;42.698;23.298;2023-05-07T07:08:56;12.40;;;9.07;;
6095;SDS011;25081;42.698;23.298;2023-05-07T07:11:08;13.20;;;8.87;;
6095;SDS011;25081;42.698;23.298;2023-05-07T07:13:17;12.40;;;9.90;;
6095;SDS011;25081;42.698;23.298;2023-05-07T07:15:28;12.50;;;8.70;;
6095;SDS011;25081;42.698;23.298;2023-05-07T07:17:39;9.03;;;8.13;;
6095;SDS011;25081;42.698;23.298;2023-05-07T07:19:50;9.80;;;7.63;;
6095;SDS011;25081;42.698;23.298;2023-05-07T07:22:00;8.20;;;7.00;;
6095;SDS011;25081;42.698;23.298;2023-05-07T07:24:11;12.50;;;7.40;;
6095;SDS011;25081;42.698;23.298;2023-05-07T07:26:22;9.93;;;8.07;;
6095;SDS011;25081;42.698;23.298;2023-05-07T07:28:32;10.97;;;7.80;;
6095;SDS011;25081;42.698;23.298;2023-05-07T07:30:43;11.10;;;8.53;;
6095;SDS011;25081;42.698;23.298;2023-05-07T07:32:55;9.33;;;7.50;;
6095;SDS011;25081;42.698;23.298;2023-05-07T07:35:07;9.63;;;7.40;;
6095;SDS011;25081;42.698;23.298;2023-05-07T07:37:19;8.40;;;7.40;;
6095;SDS011;25081;42.698;23.298;2023-05-07T07:39:29;8.13;;;6.73;;
6095;SDS011;25081;42.698;23.298;2023-05-07T07:41:40;9.50;;;7.40;;
6095;SDS011;25081;42.698;23.298;2023-05-07T07:43:51;9.50;;;7.40;;
6095;SDS011;25081;42.698;23.298;2023-05-07T07:46:02;9.07;;;7.87;;
6095;SDS011;25081;42.698;23.298;2023-05-07T07:48:13;8.20;;;7.23;;
6095;SDS011;25081;42.698;23.298;2023-05-07T07:50:23;9.50;;;8.30;;
6095;SDS011;25081;42.698;23.298;2023-05-07T07:52:34;9.23;;;7.63;;
6095;SDS011;25081;42.698;23.298;2023-05-07T07:54:45;13.30;;;8.13;;
6095;SDS011;25081;42.698;23.298;2023-05-07T07:56:56;8.83;;;7.93;;
6095;SDS011;25081;42.698;23.298;2023-05-07T07:59:07;10.10;;;8.10;;
6095;SDS011;25081;42.698;23.298;2023-05-07T08:01:17;10.23;;;8.00;;
6095;SDS011;25081;42.698;23.298;2023-05-07T08:03:28;11.00;;;7.60;;
6095;SDS011;25081;42.698;23.298;2023-05-07T08:05:39;8.53;;;7.63;;
6095;SDS011;25081;42.698;23.298;2023-05-07T08:07:50;8.53;;;7.70;;
6095;SDS011;25081;42.698;23.298;2023-05-07T08:10:01;8.30;;;7.43;;
6095;SDS011;25081;42.698;23.298;2023-05-07T08:12:11;9.03;;;6.90;;
6095;SDS011;25081;42.698;23.298;2023-05-07T08:14:22;8.17;;;6.97;;
6095;SDS011;25081;42.698;23.298;2023-05-07T08:16:33;7.33;;;6.63;;
6095;SDS011;25081;42.698;23.298;2023-05-07T08:18:44;9.37;;;6.93;;
6095;SDS011;25081;42.698;23.298;2023-05-07T08:20:55;8.40;;;7.37;;
6095;SDS011;25081;42.698;23.298;2023-05-07T08:23:05;7.73;;;6.63;;
6095;SDS011;25081;42.698;23.298;2023-05-07T08:25:16;13.67;;;7.80;;
6095;SDS011;25081;42.698;23.298;2023-05-07T08:27:26;10.70;;;7.27;;
6095;SDS011;25081;42.698;23.298;2023-05-07T08:29:37;9.67;;;7.30;;
6095;SDS011;25081;42.698;23.298;2023-05-07T08:31:48;8.70;;;6.67;;
6095;SDS011;25081;42.698;23.298;2023-05-07T08:33:58;10.43;;;6.27;;
6095;SDS011;25081;42.698;23.298;2023-05-07T08:36:09;8.30;;;6.80;;
6095;SDS011;25081;42.698;23.298;2023-05-07T08:38:20;9.37;;;7.20;;
6095;SDS011;25081;42.698;23.298;2023-05-07T08:40:32;7.33;;;5.63;;
6095;SDS011;25081;42.698;23.298;2023-05-07T08:42:41;8.17;;;6.67;;
6095;SDS011;25081;42.698;23.298;2023-05-07T08:44:52;7.17;;;5.70;;
6095;SDS011;25081;42.698;23.298;2023-05-07T08:47:02;8.90;;;5.30;;
6095;SDS011;25081;42.698;23.298;2023-05-07T08:49:13;7.07;;;6.07;;
6095;SDS011;25081;42.698;23.298;2023-05-07T08:51:24;8.80;;;5.77;;
6095;SDS011;25081;42.698;23.298;2023-05-07T08:53:35;16.13;;;5.80;;
6095;SDS011;25081;42.698;23.298;2023-05-07T08:55:46;8.30;;;6.37;;
6095;SDS011;25081;42.698;23.298;2023-05-07T08:57:56;5.10;;;4.47;;
6095;SDS011;25081;42.698;23.298;2023-05-07T09:00:08;6.30;;;5.43;;
6095;SDS011;25081;42.698;23.298;2023-05-07T09:02:19;5.77;;;5.13;;
6095;SDS011;25081;42.698;23.298;2023-05-07T09:04:30;8.10;;;5.60;;
6095;SDS011;25081;42.698;23.298;2023-05-07T09:06:40;6.20;;;5.60;;
6095;SDS011;25081;42.698;23.298;2023-05-07T09:08:51;6.27;;;4.97;;
6095;SDS011;25081;42.698;23.298;2023-05-07T09:11:02;7.00;;;6.20;;
6095;SDS011;25081;42.698;23.298;2023-05-07T09:13:13;5.97;;;5.23;;
6095;SDS011;25081;42.698;23.298;2023-05-07T09:15:23;6.47;;;5.10;;
6095;SDS011;25081;42.698;23.298;2023-05-07T09:17:34;6.10;;;5.10;;
6095;SDS011;25081;42.698;23.298;2023-05-07T09:19:45;7.20;;;5.47;;
6095;SDS011;25081;42.698;23.298;2023-05-07T09:21:59;7.20;;;5.27;;
6095;SDS011;25081;42.698;23.298;2023-05-07T09:24:10;7.53;;;6.43;;
6095;SDS011;25081;42.698;23.298;2023-05-07T09:26:22;7.17;;;5.90;;
6095;SDS011;25081;42.698;23.298;2023-05-07T09:28:32;5.73;;;5.00;;
6095;SDS011;25081;42.698;23.298;2023-05-07T09:30:43;7.23;;;4.70;;
6095;SDS011;25081;42.698;23.298;2023-05-07T09:32:54;6.27;;;5.33;;
6095;SDS011;25081;42.698;23.298;2023-05-07T09:35:08;5.40;;;3.63;;
6095;SDS011;25081;42.698;23.298;2023-05-07T09:37:19;5.20;;;4.50;;
6095;SDS011;25081;42.698;23.298;2023-05-07T09:39:39;5.70;;;4.00;;
6095;SDS011;25081;42.698;23.298;2023-05-07T09:41:50;5.10;;;3.90;;
6095;SDS011;25081;42.698;23.298;2023-05-07T09:44:01;6.20;;;4.70;;
6095;SDS011;25081;42.698;23.298;2023-05-07T09:46:13;6.70;;;4.47;;
6095;SDS011;25081;42.698;23.298;2023-05-07T09:48:23;7.10;;;4.70;;
6095;SDS011;25081;42.698;23.298;2023-05-07T09:50:35;7.50;;;4.33;;
6095;SDS011;25081;42.698;23.298;2023-05-07T09:52:45;7.27;;;5.10;;
6095;SDS011;25081;42.698;23.298;2023-05-07T09:54:57;7.30;;;5.07;;
6095;SDS011;25081;42.698;23.298;2023-05-07T09:57:10;5.30;;;4.07;;
6095;SDS011;25081;42.698;23.298;2023-05-07T09:59:19;8.03;;;4.77;;
6095;SDS011;25081;42.698;23.298;2023-05-07T10:01:29;5.23;;;4.00;;
6095;SDS011;25081;42.698;23.298;2023-05-07T10:03:41;6.07;;;4.23;;
6095;SDS011;25081;42.698;23.298;2023-05-07T10:05:51;7.40;;;4.00;;
6095;SDS011;25081;42.698;23.298;2023-05-07T10:08:02;5.97;;;5.10;;
6095;SDS011;25081;42.698;23.298;2023-05-07T10:10:13;4.93;;;3.60;;
6095;SDS011;25081;42.698;23.298;2023-05-07T10:12:24;4.70;;;3.80;;
6095;SDS011;25081;42.698;23.298;2023-05-07T10:14:34;8.10;;;4.70;;
6095;SDS011;25081;42.698;23.298;2023-05-07T10:16:45;4.27;;;3.60;;
6095;SDS011;25081;42.698;23.298;2023-05-07T10:18:56;5.47;;;3.53;;
6095;SDS011;25081;42.698;23.298;2023-05-07T10:21:08;5.40;;;4.33;;
6095;SDS011;25081;42.698;23.298;2023-05-07T10:23:19;5.33;;;4.30;;
6095;SDS011;25081;42.698;23.298;2023-05-07T10:25:29;6.00;;;4.10;;
6095;SDS011;25081;42.698;23.298;2023-05-07T10:27:40;4.63;;;4.23;;
6095;SDS011;25081;42.698;23.298;2023-05-07T10:29:53;4.30;;;3.90;;
6095;SDS011;25081;42.698;23.298;2023-05-07T10:32:08;4.30;;;3.90;;
6095;SDS011;25081;42.698;23.298;2023-05-07T10:34:23;4.60;;;3.23;;
6095;SDS011;25081;42.698;23.298;2023-05-07T10:36:33;4.97;;;3.67;;
6095;SDS011;25081;42.698;23.298;2023-05-07T10:38:43;5.20;;;4.70;;
6095;SDS011;25081;42.698;23.298;2023-05-07T10:40:54;6.20;;;4.10;;
6095;SDS011;25081;42.698;23.298;2023-05-07T10:43:05;6.00;;;3.60;;
6095;SDS011;25081;42.698;23.298;2023-05-07T10:45:15;5.30;;;3.83;;
6095;SDS011;25081;42.698;23.298;2023-05-07T10:47:26;6.00;;;3.80;;
6095;SDS011;25081;42.698;23.298;2023-05-07T10:49:38;4.37;;;3.70;;
6095;SDS011;25081;42.698;23.298;2023-05-07T10:52:14;5.40;;;4.20;;
6095;SDS011;25081;42.698;23.298;2023-05-07T10:54:24;5.00;;;4.07;;
6095;SDS011;25081;42.698;23.298;2023-05-07T10:56:35;4.70;;;4.10;;
6095;SDS011;25081;42.698;23.298;2023-05-07T10:58:45;5.20;;;4.07;;
6095;SDS011;25081;42.698;23.298;2023-05-07T11:00:57;6.20;;;4.40;;
6095;SDS011;25081;42.698;23.298;2023-05-07T11:03:07;5.93;;;3.93;;
6095;SDS011;25081;42.698;23.298;2023-05-07T11:05:21;4.60;;;3.97;;
6095;SDS011;25081;42.698;23.298;2023-05-07T11:07:31;12.90;;;4.20;;
6095;SDS011;25081;42.698;23.298;2023-05-07T11:09:58;7.00;;;4.23;;
6095;SDS011;25081;42.698;23.298;2023-05-07T11:12:09;4.80;;;4.00;;
6095;SDS011;25081;42.698;23.298;2023-05-07T11:16:55;5.57;;;4.47;;
6095;SDS011;25081;42.698;23.298;2023-05-07T11:19:11;7.87;;;4.40;;
6095;SDS011;25081;42.698;23.298;2023-05-07T11:21:32;10.43;;;4.00;;
6095;SDS011;25081;42.698;23.298;2023-05-07T11:24:01;3.97;;;3.33;;
6095;SDS011;25081;42.698;23.298;2023-05-07T11:26:12;8.57;;;4.10;;
6095;SDS011;25081;42.698;23.298;2023-05-07T11:28:23;5.87;;;3.67;;
6095;SDS011;25081;42.698;23.298;2023-05-07T11:30:34;3.53;;;2.90;;
6095;SDS011;25081;42.698;23.298;2023-05-07T11:32:48;4.00;;;3.23;;
6095;SDS011;25081;42.698;23.298;2023-05-07T11:34:57;5.23;;;3.63;;
6095;SDS011;25081;42.698;23.298;2023-05-07T11:37:07;3.70;;;3.30;;
6095;SDS011;25081;42.698;23.298;2023-05-07T11:39:24;4.67;;;3.40;;
6095;SDS011;25081;42.698;23.298;2023-05-07T11:41:35;4.10;;;3.50;;
6095;SDS011;25081;42.698;23.298;2023-05-07T11:43:56;3.83;;;3.30;;
6095;SDS011;25081;42.698;23.298;2023-05-07T11:46:08;6.73;;;3.83;;
6095;SDS011;25081;42.698;23.298;2023-05-07T11:48:18;6.30;;;4.47;;
6095;SDS011;25081;42.698;23.298;2023-05-07T11:50:29;5.87;;;3.90;;
6095;SDS011;25081;42.698;23.298;2023-05-07T11:52:39;7.27;;;4.40;;
6095;SDS011;25081;42.698;23.298;2023-05-07T11:54:50;4.33;;;3.87;;
6095;SDS011;25081;42.698;23.298;2023-05-07T11:57:01;4.17;;;3.60;;
6095;SDS011;25081;42.698;23.298;2023-05-07T11:59:12;5.97;;;4.20;;
6095;SDS011;25081;42.698;23.298;2023-05-07T12:01:29;4.20;;;3.67;;
6095;SDS011;25081;42.698;23.298;2023-05-07T12:03:37;3.80;;;3.10;;
6095;SDS011;25081;42.698;23.298;2023-05-07T12:05:48;3.10;;;2.70;;
6095;SDS011;25081;42.698;23.298;2023-05-07T12:07:59;4.13;;;2.90;;
6095;SDS011;25081;42.698;23.298;2023-05-07T12:10:11;3.93;;;2.90;;
6095;SDS011;25081;42.698;23.298;2023-05-07T12:12:22;4.87;;;3.57;;
6095;SDS011;25081;42.698;23.298;2023-05-07T12:14:33;4.47;;;3.23;;
6095;SDS011;25081;42.698;23.298;2023-05-07T12:16:43;4.60;;;2.90;;
6095;SDS011;25081;42.698;23.298;2023-05-07T12:18:54;5.10;;;3.57;;
6095;SDS011;25081;42.698;23.298;2023-05-07T12:21:05;3.47;;;2.93;;
6095;SDS011;25081;42.698;23.298;2023-05-07T12:23:16;5.60;;;3.33;;
6095;SDS011;25081;42.698;23.298;2023-05-07T12:25:26;4.97;;;3.47;;
6095;SDS011;25081;42.698;23.298;2023-05-07T12:27:37;5.33;;;3.50;;
6095;SDS011;25081;42.698;23.298;2023-05-07T12:29:50;3.80;;;3.40;;
6095;SDS011;25081;42.698;23.298;2023-05-07T12:32:00;4.57;;;3.20;;
6095;SDS011;25081;42.698;23.298;2023-05-07T12:34:11;3.70;;;3.10;;
6095;SDS011;25081;42.698;23.298;2023-05-07T12:36:22;6.40;;;2.97;;
6095;SDS011;25081;42.698;23.298;2023-05-07T12:38:36;3.17;;;2.57;;
6095;SDS011;25081;42.698;23.298;2023-05-07T12:40:47;4.90;;;3.60;;
6095;SDS011;25081;42.698;23.298;2023-05-07T12:42:58;4.00;;;3.37;;
6095;SDS011;25081;42.698;23.298;2023-05-07T12:45:08;3.53;;;2.77;;
6095;SDS011;25081;42.698;23.298;2023-05-07T12:47:22;4.87;;;2.80;;
6095;SDS011;25081;42.698;23.298;2023-05-07T12:49:35;4.60;;;3.30;;
6095;SDS011;25081;42.698;23.298;2023-05-07T12:51:47;4.27;;;3.17;;
6095;SDS011;25081;42.698;23.298;2023-05-07T12:53:57;3.83;;;2.90;;
6095;SDS011;25081;42.698;23.298;2023-05-07T12:56:08;5.40;;;3.50;;
6095;SDS011;25081;42.698;23.298;2023-05-07T12:58:19;13.83;;;3.63;;
6095;SDS011;25081;42.698;23.298;2023-05-07T13:00:35;5.10;;;3.30;;
6095;SDS011;25081;42.698;23.298;2023-05-07T13:02:46;3.43;;;3.10;;